sensor_id;sensor_type;location;lat;lon;timestamp;temperature;humidity
20698;DHT22;10508;50.956;4.640;2022-12-07T00:01:38;6.00;99.90
20698;DHT22;10508;50.956;4.640;2022-12-07T00:04:04;6.10;99.90
20698;DHT22;10508;50.956;4.640;2022-12-07T00:06:57;6.00;99.90
20698;DHT22;10508;50.956;4.640;2022-12-07T00:09:23;6.00;99.90
20698;DHT22;10508;50.956;4.640;2022-12-07T00:11:50;6.00;99.90
20698;DHT22;10508;50.956;4.640;2022-12-07T00:14:17;6.00;99.90
20698;DHT22;10508;50.956;4.640;2022-12-07T00:16:43;5.90;99.90
20698;DHT22;10508;50.956;4.640;2022-12-07T00:19:10;5.80;99.90
20698;DHT22;10508;50.956;4.640;2022-12-07T00:21:36;5.70;99.90
20698;DHT22;10508;50.956;4.640;2022-12-07T00:24:02;5.70;99.90
20698;DHT22;10508;50.956;4.640;2022-12-07T00:26:36;5.60;99.90
20698;DHT22;10508;50.956;4.640;2022-12-07T00:29:05;5.40;99.90
20698;DHT22;10508;50.956;4.640;2022-12-07T00:31:33;5.40;99.90
20698;DHT22;10508;50.956;4.640;2022-12-07T00:34:00;5.40;99.90
20698;DHT22;10508;50.956;4.640;2022-12-07T00:36:44;5.40;99.90
20698;DHT22;10508;50.956;4.640;2022-12-07T00:39:11;5.30;99.90
20698;DHT22;10508;50.956;4.640;2022-12-07T00:41:36;5.30;99.90
20698;DHT22;10508;50.956;4.640;2022-12-07T00:44:02;5.30;99.90
20698;DHT22;10508;50.956;4.640;2022-12-07T00:46:28;5.30;99.90
20698;DHT22;10508;50.956;4.640;2022-12-07T00:48:53;5.30;99.90
20698;DHT22;10508;50.956;4.640;2022-12-07T00:51:21;5.20;99.90
20698;DHT22;10508;50.956;4.640;2022-12-07T00:53:47;5.20;99.90
20698;DHT22;10508;50.956;4.640;2022-12-07T00:56:27;5.30;99.90
20698;DHT22;10508;50.956;4.640;2022-12-07T00:58:53;5.30;99.90
20698;DHT22;10508;50.956;4.640;2022-12-07T01:01:19;5.20;99.90
20698;DHT22;10508;50.956;4.640;2022-12-07T01:03:45;5.10;99.90
20698;DHT22;10508;50.956;4.640;2022-12-07T01:06:14;5.00;99.90
20698;DHT22;10508;50.956;4.640;2022-12-07T01:08:40;5.00;99.90
20698;DHT22;10508;50.956;4.640;2022-12-07T01:11:07;5.00;99.90
20698;DHT22;10508;50.956;4.640;2022-12-07T01:13:35;4.90;99.90
20698;DHT22;10508;50.956;4.640;2022-12-07T01:16:04;4.90;99.90
20698;DHT22;10508;50.956;4.640;2022-12-07T01:18:31;4.80;99.90
20698;DHT22;10508;50.956;4.640;2022-12-07T01:20:59;4.80;99.90
20698;DHT22;10508;50.956;4.640;2022-12-07T01:23:25;4.70;99.90
20698;DHT22;10508;50.956;4.640;2022-12-07T01:25:57;4.70;99.90
20698;DHT22;10508;50.956;4.640;2022-12-07T01:28:24;4.70;99.90
20698;DHT22;10508;50.956;4.640;2022-12-07T01:33:27;4.90;99.90
20698;DHT22;10508;50.956;4.640;2022-12-07T01:35:54;4.90;99.90
20698;DHT22;10508;50.956;4.640;2022-12-07T01:38:20;5.00;99.90
20698;DHT22;10508;50.956;4.640;2022-12-07T01:40:45;4.90;99.90
20698;DHT22;10508;50.956;4.640;2022-12-07T01:43:19;5.00;99.90
20698;DHT22;10508;50.956;4.640;2022-12-07T01:45:45;5.00;99.90
20698;DHT22;10508;50.956;4.640;2022-12-07T01:48:14;5.10;99.90
20698;DHT22;10508;50.956;4.640;2022-12-07T01:50:41;5.10;99.90
20698;DHT22;10508;50.956;4.640;2022-12-07T01:53:09;5.20;99.90
20698;DHT22;10508;50.956;4.640;2022-12-07T01:55:38;5.20;99.90
20698;DHT22;10508;50.956;4.640;2022-12-07T01:58:05;5.20;99.90
20698;DHT22;10508;50.956;4.640;2022-12-07T02:00:31;5.30;99.90
20698;DHT22;10508;50.956;4.640;2022-12-07T02:03:08;5.30;99.90
20698;DHT22;10508;50.956;4.640;2022-12-07T02:05:37;5.40;99.90
20698;DHT22;10508;50.956;4.640;2022-12-07T02:08:03;5.40;99.90
20698;DHT22;10508;50.956;4.640;2022-12-07T02:10:31;5.60;99.90
20698;DHT22;10508;50.956;4.640;2022-12-07T02:13:08;5.60;99.90
20698;DHT22;10508;50.956;4.640;2022-12-07T02:27:44;5.20;99.90
20698;DHT22;10508;50.956;4.640;2022-12-07T02:30:21;5.10;99.90
20698;DHT22;10508;50.956;4.640;2022-12-07T02:32:57;5.20;99.90
20698;DHT22;10508;50.956;4.640;2022-12-07T02:40:57;5.20;99.90
20698;DHT22;10508;50.956;4.640;2022-12-07T02:43:31;5.20;99.90
20698;DHT22;10508;50.956;4.640;2022-12-07T02:46:06;5.20;99.90
20698;DHT22;10508;50.956;4.640;2022-12-07T02:48:34;5.20;99.90
20698;DHT22;10508;50.956;4.640;2022-12-07T02:51:00;5.30;99.90
20698;DHT22;10508;50.956;4.640;2022-12-07T02:53:40;5.40;99.90
20698;DHT22;10508;50.956;4.640;2022-12-07T02:59:28;5.40;99.90
20698;DHT22;10508;50.956;4.640;2022-12-07T03:06:53;5.40;99.90
20698;DHT22;10508;50.956;4.640;2022-12-07T03:09:30;5.40;99.90
20698;DHT22;10508;50.956;4.640;2022-12-07T03:12:12;5.30;99.90
20698;DHT22;10508;50.956;4.640;2022-12-07T03:14:46;5.30;99.90
20698;DHT22;10508;50.956;4.640;2022-12-07T03:17:19;5.20;99.90
20698;DHT22;10508;50.956;4.640;2022-12-07T03:19:48;5.20;99.90
20698;DHT22;10508;50.956;4.640;2022-12-07T03:22:15;5.20;99.90
20698;DHT22;10508;50.956;4.640;2022-12-07T03:24:51;5.20;99.90
20698;DHT22;10508;50.956;4.640;2022-12-07T03:27:24;5.30;99.90
20698;DHT22;10508;50.956;4.640;2022-12-07T03:30:30;5.40;99.90
20698;DHT22;10508;50.956;4.640;2022-12-07T03:32:59;5.40;99.90
20698;DHT22;10508;50.956;4.640;2022-12-07T03:35:42;5.40;99.90
20698;DHT22;10508;50.956;4.640;2022-12-07T03:38:23;5.40;99.90
20698;DHT22;10508;50.956;4.640;2022-12-07T03:41:01;5.40;99.90
20698;DHT22;10508;50.956;4.640;2022-12-07T03:43:29;5.50;99.90
20698;DHT22;10508;50.956;4.640;2022-12-07T03:46:17;5.50;99.90
20698;DHT22;10508;50.956;4.640;2022-12-07T03:51:30;5.40;99.90
20698;DHT22;10508;50.956;4.640;2022-12-07T03:54:19;5.30;99.90
20698;DHT22;10508;50.956;4.640;2022-12-07T03:56:47;5.40;99.90
20698;DHT22;10508;50.956;4.640;2022-12-07T03:59:14;5.30;99.90
20698;DHT22;10508;50.956;4.640;2022-12-07T04:01:48;5.30;99.90
20698;DHT22;10508;50.956;4.640;2022-12-07T04:04:17;5.30;99.90
20698;DHT22;10508;50.956;4.640;2022-12-07T04:06:43;5.10;99.90
20698;DHT22;10508;50.956;4.640;2022-12-07T04:09:08;5.10;99.90
20698;DHT22;10508;50.956;4.640;2022-12-07T04:11:34;5.10;99.90
20698;DHT22;10508;50.956;4.640;2022-12-07T04:13:59;5.10;99.90
20698;DHT22;10508;50.956;4.640;2022-12-07T04:16:44;5.00;99.90
20698;DHT22;10508;50.956;4.640;2022-12-07T04:19:09;4.80;99.90
20698;DHT22;10508;50.956;4.640;2022-12-07T04:21:35;4.70;99.90
20698;DHT22;10508;50.956;4.640;2022-12-07T04:24:01;4.70;99.90
20698;DHT22;10508;50.956;4.640;2022-12-07T04:26:26;4.60;99.90
20698;DHT22;10508;50.956;4.640;2022-12-07T04:28:52;4.60;99.90
20698;DHT22;10508;50.956;4.640;2022-12-07T04:31:17;4.50;99.90
20698;DHT22;10508;50.956;4.640;2022-12-07T04:34:00;4.40;99.90
20698;DHT22;10508;50.956;4.640;2022-12-07T04:36:26;4.30;99.90
20698;DHT22;10508;50.956;4.640;2022-12-07T04:38:53;4.40;99.90
20698;DHT22;10508;50.956;4.640;2022-12-07T04:41:20;4.50;99.90
20698;DHT22;10508;50.956;4.640;2022-12-07T04:43:53;4.40;99.90
20698;DHT22;10508;50.956;4.640;2022-12-07T04:46:19;4.40;99.90
20698;DHT22;10508;50.956;4.640;2022-12-07T04:48:45;4.40;99.90
20698;DHT22;10508;50.956;4.640;2022-12-07T04:51:10;4.40;99.90
20698;DHT22;10508;50.956;4.640;2022-12-07T04:53:36;4.40;99.90
20698;DHT22;10508;50.956;4.640;2022-12-07T04:56:01;4.30;99.90
20698;DHT22;10508;50.956;4.640;2022-12-07T04:58:27;4.30;99.90
20698;DHT22;10508;50.956;4.640;2022-12-07T05:00:56;4.20;99.90
20698;DHT22;10508;50.956;4.640;2022-12-07T05:03:21;4.20;99.90
20698;DHT22;10508;50.956;4.640;2022-12-07T05:05:47;4.10;99.90
20698;DHT22;10508;50.956;4.640;2022-12-07T05:08:13;4.10;99.90
20698;DHT22;10508;50.956;4.640;2022-12-07T05:10:38;4.00;99.90
20698;DHT22;10508;50.956;4.640;2022-12-07T05:13:04;4.00;99.90
20698;DHT22;10508;50.956;4.640;2022-12-07T05:15:30;3.90;99.90
20698;DHT22;10508;50.956;4.640;2022-12-07T05:17:55;3.90;99.90
20698;DHT22;10508;50.956;4.640;2022-12-07T05:20:30;4.00;99.90
20698;DHT22;10508;50.956;4.640;2022-12-07T05:22:55;4.10;99.90
20698;DHT22;10508;50.956;4.640;2022-12-07T05:25:23;4.20;99.90
20698;DHT22;10508;50.956;4.640;2022-12-07T05:27:49;4.20;99.90
20698;DHT22;10508;50.956;4.640;2022-12-07T05:30:15;4.20;99.90
20698;DHT22;10508;50.956;4.640;2022-12-07T05:32:41;4.20;99.90
20698;DHT22;10508;50.956;4.640;2022-12-07T05:35:06;4.30;99.90
20698;DHT22;10508;50.956;4.640;2022-12-07T05:37:32;4.30;99.90
20698;DHT22;10508;50.956;4.640;2022-12-07T05:39:58;4.30;99.90
20698;DHT22;10508;50.956;4.640;2022-12-07T05:42:23;4.30;99.90
20698;DHT22;10508;50.956;4.640;2022-12-07T05:44:49;4.30;99.90
20698;DHT22;10508;50.956;4.640;2022-12-07T05:47:16;4.30;99.90
20698;DHT22;10508;50.956;4.640;2022-12-07T05:49:41;4.40;99.90
20698;DHT22;10508;50.956;4.640;2022-12-07T05:52:07;4.40;99.90
20698;DHT22;10508;50.956;4.640;2022-12-07T05:54:33;4.50;99.90
20698;DHT22;10508;50.956;4.640;2022-12-07T05:56:59;4.50;99.90
20698;DHT22;10508;50.956;4.640;2022-12-07T05:59:25;4.60;99.90
20698;DHT22;10508;50.956;4.640;2022-12-07T06:02:13;4.50;99.90
20698;DHT22;10508;50.956;4.640;2022-12-07T06:04:41;4.50;99.90
20698;DHT22;10508;50.956;4.640;2022-12-07T06:07:08;4.50;99.90
20698;DHT22;10508;50.956;4.640;2022-12-07T06:09:35;4.60;99.90
20698;DHT22;10508;50.956;4.640;2022-12-07T06:12:01;4.70;99.90
20698;DHT22;10508;50.956;4.640;2022-12-07T06:14:45;4.70;99.90
20698;DHT22;10508;50.956;4.640;2022-12-07T06:17:12;4.70;99.90
20698;DHT22;10508;50.956;4.640;2022-12-07T06:19:38;4.80;99.90
20698;DHT22;10508;50.956;4.640;2022-12-07T06:22:04;4.70;99.90
20698;DHT22;10508;50.956;4.640;2022-12-07T06:24:33;4.80;99.90
20698;DHT22;10508;50.956;4.640;2022-12-07T06:26:59;4.70;99.90
20698;DHT22;10508;50.956;4.640;2022-12-07T06:29:25;4.80;99.90
20698;DHT22;10508;50.956;4.640;2022-12-07T06:31:50;4.80;99.90
20698;DHT22;10508;50.956;4.640;2022-12-07T06:34:18;4.80;99.90
20698;DHT22;10508;50.956;4.640;2022-12-07T06:36:45;4.80;99.90
20698;DHT22;10508;50.956;4.640;2022-12-07T06:39:12;4.80;99.90
20698;DHT22;10508;50.956;4.640;2022-12-07T06:41:38;4.70;99.90
20698;DHT22;10508;50.956;4.640;2022-12-07T06:44:05;4.60;99.90
20698;DHT22;10508;50.956;4.640;2022-12-07T06:46:31;4.60;99.90
20698;DHT22;10508;50.956;4.640;2022-12-07T06:48:57;4.60;99.90
20698;DHT22;10508;50.956;4.640;2022-12-07T06:51:23;4.60;99.90
20698;DHT22;10508;50.956;4.640;2022-12-07T06:53:48;4.60;99.90
20698;DHT22;10508;50.956;4.640;2022-12-07T06:56:14;4.70;99.90
20698;DHT22;10508;50.956;4.640;2022-12-07T06:58:40;4.70;99.90
20698;DHT22;10508;50.956;4.640;2022-12-07T07:01:14;4.60;99.90
20698;DHT22;10508;50.956;4.640;2022-12-07T07:03:40;4.60;99.90
20698;DHT22;10508;50.956;4.640;2022-12-07T07:06:06;4.60;99.90
20698;DHT22;10508;50.956;4.640;2022-12-07T07:08:36;4.60;99.90
20698;DHT22;10508;50.956;4.640;2022-12-07T07:11:02;4.70;99.90
20698;DHT22;10508;50.956;4.640;2022-12-07T07:13:28;4.90;99.90
20698;DHT22;10508;50.956;4.640;2022-12-07T07:15:54;4.90;99.90
20698;DHT22;10508;50.956;4.640;2022-12-07T07:18:20;5.00;99.90
20698;DHT22;10508;50.956;4.640;2022-12-07T07:20:46;5.00;99.90
20698;DHT22;10508;50.956;4.640;2022-12-07T07:23:11;5.00;99.90
20698;DHT22;10508;50.956;4.640;2022-12-07T07:25:37;5.00;99.90
20698;DHT22;10508;50.956;4.640;2022-12-07T07:28:03;5.00;99.90
20698;DHT22;10508;50.956;4.640;2022-12-07T07:30:29;5.10;99.90
20698;DHT22;10508;50.956;4.640;2022-12-07T07:32:58;5.10;99.90
20698;DHT22;10508;50.956;4.640;2022-12-07T07:35:25;5.10;99.90
20698;DHT22;10508;50.956;4.640;2022-12-07T07:37:51;5.00;99.90
20698;DHT22;10508;50.956;4.640;2022-12-07T07:40:17;5.10;99.90
20698;DHT22;10508;50.956;4.640;2022-12-07T07:42:42;5.00;99.90
20698;DHT22;10508;50.956;4.640;2022-12-07T07:45:08;4.90;99.90
20698;DHT22;10508;50.956;4.640;2022-12-07T07:47:34;4.80;99.90
20698;DHT22;10508;50.956;4.640;2022-12-07T07:50:00;4.80;99.90
20698;DHT22;10508;50.956;4.640;2022-12-07T07:52:26;4.80;99.90
20698;DHT22;10508;50.956;4.640;2022-12-07T07:54:52;4.70;99.90
20698;DHT22;10508;50.956;4.640;2022-12-07T07:57:18;4.70;99.90
20698;DHT22;10508;50.956;4.640;2022-12-07T07:59:44;4.50;99.90
20698;DHT22;10508;50.956;4.640;2022-12-07T08:02:17;4.50;99.90
20698;DHT22;10508;50.956;4.640;2022-12-07T08:04:44;4.40;99.90
20698;DHT22;10508;50.956;4.640;2022-12-07T08:07:10;4.30;99.90
20698;DHT22;10508;50.956;4.640;2022-12-07T08:09:37;4.30;99.90
20698;DHT22;10508;50.956;4.640;2022-12-07T08:12:03;4.40;99.90
20698;DHT22;10508;50.956;4.640;2022-12-07T08:14:28;4.50;99.90
20698;DHT22;10508;50.956;4.640;2022-12-07T08:16:54;4.50;99.90
20698;DHT22;10508;50.956;4.640;2022-12-07T08:19:20;4.50;99.90
20698;DHT22;10508;50.956;4.640;2022-12-07T08:21:46;4.50;99.90
20698;DHT22;10508;50.956;4.640;2022-12-07T08:24:12;4.50;99.90
20698;DHT22;10508;50.956;4.640;2022-12-07T08:26:37;4.50;99.90
20698;DHT22;10508;50.956;4.640;2022-12-07T08:29:03;4.60;99.90
20698;DHT22;10508;50.956;4.640;2022-12-07T08:31:29;4.60;99.90
20698;DHT22;10508;50.956;4.640;2022-12-07T08:33:55;4.60;99.90
20698;DHT22;10508;50.956;4.640;2022-12-07T08:36:21;4.70;99.90
20698;DHT22;10508;50.956;4.640;2022-12-07T08:38:48;4.70;99.90
20698;DHT22;10508;50.956;4.640;2022-12-07T08:41:14;4.70;99.90
20698;DHT22;10508;50.956;4.640;2022-12-07T08:43:40;4.80;99.90
20698;DHT22;10508;50.956;4.640;2022-12-07T08:48:37;5.10;99.90
20698;DHT22;10508;50.956;4.640;2022-12-07T08:51:04;5.20;99.90
20698;DHT22;10508;50.956;4.640;2022-12-07T08:53:30;5.20;99.90
20698;DHT22;10508;50.956;4.640;2022-12-07T08:55:57;5.30;99.90
20698;DHT22;10508;50.956;4.640;2022-12-07T08:58:24;5.30;99.90
20698;DHT22;10508;50.956;4.640;2022-12-07T09:01:08;5.40;99.90
20698;DHT22;10508;50.956;4.640;2022-12-07T09:03:34;5.40;99.90
20698;DHT22;10508;50.956;4.640;2022-12-07T09:06:00;5.50;99.90
20698;DHT22;10508;50.956;4.640;2022-12-07T09:08:31;5.60;99.90
20698;DHT22;10508;50.956;4.640;2022-12-07T09:10:58;5.50;99.90
20698;DHT22;10508;50.956;4.640;2022-12-07T09:13:23;5.60;99.90
20698;DHT22;10508;50.956;4.640;2022-12-07T09:15:49;5.70;99.90
20698;DHT22;10508;50.956;4.640;2022-12-07T09:18:14;5.70;99.90
20698;DHT22;10508;50.956;4.640;2022-12-07T09:20:40;5.70;99.90
20698;DHT22;10508;50.956;4.640;2022-12-07T09:23:06;5.80;99.90
20698;DHT22;10508;50.956;4.640;2022-12-07T09:25:33;5.80;99.90
20698;DHT22;10508;50.956;4.640;2022-12-07T09:27:59;5.90;99.90
20698;DHT22;10508;50.956;4.640;2022-12-07T09:30:25;5.90;99.90
20698;DHT22;10508;50.956;4.640;2022-12-07T09:32:53;6.10;99.90
20698;DHT22;10508;50.956;4.640;2022-12-07T09:35:19;6.30;99.90
20698;DHT22;10508;50.956;4.640;2022-12-07T09:37:45;6.40;99.90
20698;DHT22;10508;50.956;4.640;2022-12-07T09:40:11;6.50;99.90
20698;DHT22;10508;50.956;4.640;2022-12-07T09:42:41;6.50;99.90
20698;DHT22;10508;50.956;4.640;2022-12-07T09:45:27;6.60;99.90
20698;DHT22;10508;50.956;4.640;2022-12-07T09:47:55;6.50;99.90
20698;DHT22;10508;50.956;4.640;2022-12-07T09:50:25;6.50;99.90
20698;DHT22;10508;50.956;4.640;2022-12-07T09:52:52;6.50;99.90
20698;DHT22;10508;50.956;4.640;2022-12-07T09:55:28;6.50;99.90
20698;DHT22;10508;50.956;4.640;2022-12-07T09:57:54;6.60;99.90
20698;DHT22;10508;50.956;4.640;2022-12-07T10:00:22;6.60;99.90
20698;DHT22;10508;50.956;4.640;2022-12-07T10:03:02;6.70;99.90
20698;DHT22;10508;50.956;4.640;2022-12-07T10:05:30;6.70;99.90
20698;DHT22;10508;50.956;4.640;2022-12-07T10:07:57;7.00;99.90
20698;DHT22;10508;50.956;4.640;2022-12-07T10:10:34;7.10;99.90
20698;DHT22;10508;50.956;4.640;2022-12-07T10:13:15;7.10;99.90
20698;DHT22;10508;50.956;4.640;2022-12-07T10:15:59;7.10;99.90
20698;DHT22;10508;50.956;4.640;2022-12-07T10:18:37;7.10;99.90
20698;DHT22;10508;50.956;4.640;2022-12-07T10:23:37;7.50;99.90
20698;DHT22;10508;50.956;4.640;2022-12-07T10:28:53;7.80;99.90
20698;DHT22;10508;50.956;4.640;2022-12-07T10:31:21;7.80;99.90
20698;DHT22;10508;50.956;4.640;2022-12-07T10:33:58;7.80;99.90
20698;DHT22;10508;50.956;4.640;2022-12-07T10:39:10;7.80;99.90
20698;DHT22;10508;50.956;4.640;2022-12-07T10:41:59;7.80;99.90
20698;DHT22;10508;50.956;4.640;2022-12-07T10:44:29;7.80;99.90
20698;DHT22;10508;50.956;4.640;2022-12-07T10:47:21;7.80;99.90
20698;DHT22;10508;50.956;4.640;2022-12-07T11:00:19;7.50;99.90
20698;DHT22;10508;50.956;4.640;2022-12-07T11:05:26;7.30;99.90
20698;DHT22;10508;50.956;4.640;2022-12-07T11:08:16;7.30;99.90
20698;DHT22;10508;50.956;4.640;2022-12-07T11:11:04;7.40;99.90
20698;DHT22;10508;50.956;4.640;2022-12-07T11:13:59;7.40;99.90
20698;DHT22;10508;50.956;4.640;2022-12-07T11:22:13;7.60;99.90
20698;DHT22;10508;50.956;4.640;2022-12-07T11:30:20;8.50;99.90
20698;DHT22;10508;50.956;4.640;2022-12-07T11:33:04;8.80;99.90
20698;DHT22;10508;50.956;4.640;2022-12-07T11:35:55;9.00;99.90
20698;DHT22;10508;50.956;4.640;2022-12-07T11:38:30;9.20;99.90
20698;DHT22;10508;50.956;4.640;2022-12-07T11:41:02;9.20;99.90
20698;DHT22;10508;50.956;4.640;2022-12-07T11:46:14;9.60;99.90
20698;DHT22;10508;50.956;4.640;2022-12-07T11:51:50;10.30;99.90
20698;DHT22;10508;50.956;4.640;2022-12-07T11:54:21;10.70;99.90
20698;DHT22;10508;50.956;4.640;2022-12-07T11:56:50;10.60;99.90
20698;DHT22;10508;50.956;4.640;2022-12-07T11:59:22;10.40;99.90
20698;DHT22;10508;50.956;4.640;2022-12-07T12:01:56;10.20;99.90
20698;DHT22;10508;50.956;4.640;2022-12-07T12:04:31;10.10;99.90
20698;DHT22;10508;50.956;4.640;2022-12-07T12:06:58;9.90;99.90
20698;DHT22;10508;50.956;4.640;2022-12-07T12:09:31;9.80;99.90
20698;DHT22;10508;50.956;4.640;2022-12-07T12:15:16;9.50;99.90
20698;DHT22;10508;50.956;4.640;2022-12-07T12:20:50;9.30;99.90
20698;DHT22;10508;50.956;4.640;2022-12-07T12:23:37;9.20;99.90
20698;DHT22;10508;50.956;4.640;2022-12-07T12:26:06;9.10;99.90
20698;DHT22;10508;50.956;4.640;2022-12-07T12:28:42;9.10;99.90
20698;DHT22;10508;50.956;4.640;2022-12-07T12:33:49;8.80;99.90
20698;DHT22;10508;50.956;4.640;2022-12-07T12:46:59;10.60;99.90
20698;DHT22;10508;50.956;4.640;2022-12-07T12:51:55;11.20;99.90
20698;DHT22;10508;50.956;4.640;2022-12-07T12:54:23;11.20;99.90
20698;DHT22;10508;50.956;4.640;2022-12-07T12:57:17;11.00;99.90
20698;DHT22;10508;50.956;4.640;2022-12-07T13:04:53;10.50;99.90
20698;DHT22;10508;50.956;4.640;2022-12-07T13:10:31;10.00;99.90
20698;DHT22;10508;50.956;4.640;2022-12-07T13:23:29;9.30;99.90
20698;DHT22;10508;50.956;4.640;2022-12-07T13:28:48;9.00;99.90
20698;DHT22;10508;50.956;4.640;2022-12-07T13:31:20;8.90;99.90
20698;DHT22;10508;50.956;4.640;2022-12-07T13:33:48;8.70;99.90
20698;DHT22;10508;50.956;4.640;2022-12-07T13:36:29;8.60;99.90
20698;DHT22;10508;50.956;4.640;2022-12-07T13:39:10;8.60;99.90
20698;DHT22;10508;50.956;4.640;2022-12-07T13:41:36;8.50;99.90
20698;DHT22;10508;50.956;4.640;2022-12-07T13:44:12;8.40;99.90
20698;DHT22;10508;50.956;4.640;2022-12-07T13:49:31;8.40;99.90
20698;DHT22;10508;50.956;4.640;2022-12-07T13:57:22;8.50;99.90
20698;DHT22;10508;50.956;4.640;2022-12-07T13:59:49;8.50;99.90
20698;DHT22;10508;50.956;4.640;2022-12-07T14:02:30;8.50;99.90
20698;DHT22;10508;50.956;4.640;2022-12-07T14:05:16;8.50;99.90
20698;DHT22;10508;50.956;4.640;2022-12-07T14:07:58;8.40;99.90
20698;DHT22;10508;50.956;4.640;2022-12-07T14:10:30;8.40;99.90
20698;DHT22;10508;50.956;4.640;2022-12-07T14:12:57;8.30;99.90
20698;DHT22;10508;50.956;4.640;2022-12-07T14:15:29;8.30;99.90
20698;DHT22;10508;50.956;4.640;2022-12-07T14:17:57;8.30;99.90
20698;DHT22;10508;50.956;4.640;2022-12-07T14:20:31;8.10;99.90
20698;DHT22;10508;50.956;4.640;2022-12-07T14:22:58;8.10;99.90
20698;DHT22;10508;50.956;4.640;2022-12-07T14:25:26;8.00;99.90
20698;DHT22;10508;50.956;4.640;2022-12-07T14:28:00;7.80;99.90
20698;DHT22;10508;50.956;4.640;2022-12-07T14:30:30;7.70;99.90
20698;DHT22;10508;50.956;4.640;2022-12-07T14:33:05;7.60;99.90
20698;DHT22;10508;50.956;4.640;2022-12-07T14:35:31;7.50;99.90
20698;DHT22;10508;50.956;4.640;2022-12-07T14:37:57;7.40;99.90
20698;DHT22;10508;50.956;4.640;2022-12-07T14:40:28;7.40;99.90
20698;DHT22;10508;50.956;4.640;2022-12-07T14:42:59;7.30;99.90
20698;DHT22;10508;50.956;4.640;2022-12-07T14:45:25;7.30;99.90
20698;DHT22;10508;50.956;4.640;2022-12-07T14:47:51;7.30;99.90
20698;DHT22;10508;50.956;4.640;2022-12-07T14:50:18;7.20;99.90
20698;DHT22;10508;50.956;4.640;2022-12-07T14:52:51;7.40;99.90
20698;DHT22;10508;50.956;4.640;2022-12-07T14:55:28;7.20;99.90
20698;DHT22;10508;50.956;4.640;2022-12-07T14:57:55;7.20;99.90
20698;DHT22;10508;50.956;4.640;2022-12-07T15:00:23;7.20;99.90
20698;DHT22;10508;50.956;4.640;2022-12-07T15:02:49;7.20;99.90
20698;DHT22;10508;50.956;4.640;2022-12-07T15:05:15;7.20;99.90
20698;DHT22;10508;50.956;4.640;2022-12-07T15:07:41;7.10;99.90
20698;DHT22;10508;50.956;4.640;2022-12-07T15:10:15;7.10;99.90
20698;DHT22;10508;50.956;4.640;2022-12-07T15:12:41;7.10;99.90
20698;DHT22;10508;50.956;4.640;2022-12-07T15:15:07;7.00;99.90
20698;DHT22;10508;50.956;4.640;2022-12-07T15:17:33;6.90;99.90
20698;DHT22;10508;50.956;4.640;2022-12-07T15:19:59;6.90;99.90
20698;DHT22;10508;50.956;4.640;2022-12-07T15:22:24;6.80;99.90
20698;DHT22;10508;50.956;4.640;2022-12-07T15:24:50;6.80;99.90
20698;DHT22;10508;50.956;4.640;2022-12-07T15:27:15;6.90;99.90
20698;DHT22;10508;50.956;4.640;2022-12-07T15:29:41;6.90;99.90
20698;DHT22;10508;50.956;4.640;2022-12-07T15:32:07;6.90;99.90
20698;DHT22;10508;50.956;4.640;2022-12-07T15:34:32;6.80;99.90
20698;DHT22;10508;50.956;4.640;2022-12-07T15:36:58;6.70;99.90
20698;DHT22;10508;50.956;4.640;2022-12-07T15:39:23;6.80;99.90
20698;DHT22;10508;50.956;4.640;2022-12-07T15:41:49;6.80;99.90
20698;DHT22;10508;50.956;4.640;2022-12-07T15:44:15;7.00;99.90
20698;DHT22;10508;50.956;4.640;2022-12-07T15:46:59;6.90;99.90
20698;DHT22;10508;50.956;4.640;2022-12-07T15:49:26;6.70;99.90
20698;DHT22;10508;50.956;4.640;2022-12-07T15:51:52;6.60;99.90
20698;DHT22;10508;50.956;4.640;2022-12-07T15:54:23;6.60;99.90
20698;DHT22;10508;50.956;4.640;2022-12-07T15:56:49;6.50;99.90
20698;DHT22;10508;50.956;4.640;2022-12-07T15:59:15;6.50;99.90
20698;DHT22;10508;50.956;4.640;2022-12-07T16:01:40;6.50;99.90
20698;DHT22;10508;50.956;4.640;2022-12-07T16:04:06;6.50;99.90
20698;DHT22;10508;50.956;4.640;2022-12-07T16:06:32;6.50;99.90
20698;DHT22;10508;50.956;4.640;2022-12-07T16:08:57;6.60;99.90
20698;DHT22;10508;50.956;4.640;2022-12-07T16:11:23;6.50;99.90
20698;DHT22;10508;50.956;4.640;2022-12-07T16:13:49;6.50;99.90
20698;DHT22;10508;50.956;4.640;2022-12-07T16:16:17;6.60;99.90
20698;DHT22;10508;50.956;4.640;2022-12-07T16:18:44;6.60;99.90
20698;DHT22;10508;50.956;4.640;2022-12-07T16:21:10;6.50;99.90
20698;DHT22;10508;50.956;4.640;2022-12-07T16:23:36;6.60;99.90
20698;DHT22;10508;50.956;4.640;2022-12-07T16:26:07;6.70;99.90
20698;DHT22;10508;50.956;4.640;2022-12-07T16:28:33;6.80;99.90
20698;DHT22;10508;50.956;4.640;2022-12-07T16:31:11;6.60;99.90
20698;DHT22;10508;50.956;4.640;2022-12-07T16:33:38;6.60;99.90
20698;DHT22;10508;50.956;4.640;2022-12-07T16:36:06;6.70;99.90
20698;DHT22;10508;50.956;4.640;2022-12-07T16:38:33;6.60;99.90
20698;DHT22;10508;50.956;4.640;2022-12-07T16:40:59;6.60;99.90
20698;DHT22;10508;50.956;4.640;2022-12-07T16:43:25;6.50;99.90
20698;DHT22;10508;50.956;4.640;2022-12-07T16:45:51;6.50;99.90
20698;DHT22;10508;50.956;4.640;2022-12-07T16:48:17;6.50;99.90
20698;DHT22;10508;50.956;4.640;2022-12-07T16:50:43;6.50;99.90
20698;DHT22;10508;50.956;4.640;2022-12-07T16:53:12;6.50;99.90
20698;DHT22;10508;50.956;4.640;2022-12-07T16:55:42;6.40;99.90
20698;DHT22;10508;50.956;4.640;2022-12-07T16:58:10;6.50;99.90
20698;DHT22;10508;50.956;4.640;2022-12-07T17:00:36;6.60;99.90
20698;DHT22;10508;50.956;4.640;2022-12-07T17:03:02;6.70;99.90
20698;DHT22;10508;50.956;4.640;2022-12-07T17:05:28;6.50;99.90
20698;DHT22;10508;50.956;4.640;2022-12-07T17:07:55;6.60;99.90
20698;DHT22;10508;50.956;4.640;2022-12-07T17:10:21;6.60;99.90
20698;DHT22;10508;50.956;4.640;2022-12-07T17:12:48;6.50;99.90
20698;DHT22;10508;50.956;4.640;2022-12-07T17:15:14;6.50;99.90
20698;DHT22;10508;50.956;4.640;2022-12-07T17:17:57;6.50;99.90
20698;DHT22;10508;50.956;4.640;2022-12-07T17:20:26;6.40;99.90
20698;DHT22;10508;50.956;4.640;2022-12-07T17:22:52;6.30;99.90
20698;DHT22;10508;50.956;4.640;2022-12-07T17:25:18;6.40;99.90
20698;DHT22;10508;50.956;4.640;2022-12-07T17:27:44;6.40;99.90
20698;DHT22;10508;50.956;4.640;2022-12-07T17:30:11;6.40;99.90
20698;DHT22;10508;50.956;4.640;2022-12-07T17:32:37;6.40;99.90
20698;DHT22;10508;50.956;4.640;2022-12-07T17:35:03;6.40;99.90
20698;DHT22;10508;50.956;4.640;2022-12-07T17:37:31;6.50;99.90
20698;DHT22;10508;50.956;4.640;2022-12-07T17:39:57;6.50;99.90
20698;DHT22;10508;50.956;4.640;2022-12-07T17:42:24;6.50;99.90
20698;DHT22;10508;50.956;4.640;2022-12-07T17:45:07;6.50;99.90
20698;DHT22;10508;50.956;4.640;2022-12-07T17:47:33;6.40;99.90
20698;DHT22;10508;50.956;4.640;2022-12-07T17:49:59;6.30;99.90
20698;DHT22;10508;50.956;4.640;2022-12-07T17:52:25;6.50;99.90
20698;DHT22;10508;50.956;4.640;2022-12-07T17:55:09;6.50;99.90
20698;DHT22;10508;50.956;4.640;2022-12-07T17:57:34;6.30;99.90
20698;DHT22;10508;50.956;4.640;2022-12-07T18:00:00;6.40;99.90
20698;DHT22;10508;50.956;4.640;2022-12-07T18:02:26;6.30;99.90